createdAt,value
2023-05-12T00:01:08.508Z,1.80
2023-05-12T00:03:35.373Z,1.50
2023-05-12T00:06:05.264Z,1.50
2023-05-12T00:08:32.048Z,1.10
2023-05-12T00:10:58.816Z,2.30
2023-05-12T00:13:25.537Z,1.50
2023-05-12T00:15:52.328Z,1.50
2023-05-12T00:18:19.242Z,1.80
2023-05-12T00:20:46.021Z,1.50
2023-05-12T00:23:13.057Z,1.30
2023-05-12T00:25:39.770Z,1.10
2023-05-12T00:28:06.419Z,1.20
2023-05-12T00:30:33.134Z,1.40
2023-05-12T00:33:00.116Z,1.70
2023-05-12T00:35:26.885Z,1.50
2023-05-12T00:37:53.804Z,1.20
2023-05-12T00:40:20.742Z,1.10
2023-05-12T00:42:47.954Z,1.30
2023-05-12T00:45:14.705Z,1.20
2023-05-12T00:47:41.564Z,1.30
2023-05-12T00:50:08.832Z,1.30
2023-05-12T00:52:35.757Z,1.00
2023-05-12T00:55:02.514Z,1.90
2023-05-12T00:57:29.325Z,1.20
2023-05-12T00:59:56.426Z,1.40
2023-05-12T01:02:23.364Z,1.40
2023-05-12T01:04:51.545Z,1.10
2023-05-12T01:07:20.983Z,1.00
2023-05-12T01:09:48.050Z,1.50
2023-05-12T01:12:15.283Z,1.20
2023-05-12T01:14:42.788Z,1.10
2023-05-12T01:17:13.400Z,1.30
2023-05-12T01:19:49.435Z,1.40
2023-05-12T01:22:19.354Z,1.40
2023-05-12T01:24:57.548Z,1.70
2023-05-12T01:27:27.371Z,2.20
2023-05-12T01:29:57.923Z,1.70
2023-05-12T01:32:25.073Z,2.40
2023-05-12T01:34:51.916Z,2.20
2023-05-12T01:37:19.349Z,2.20
2023-05-12T01:39:46.368Z,2.70
2023-05-12T01:42:19.410Z,2.40
2023-05-12T01:44:46.757Z,2.50
2023-05-12T01:47:15.769Z,2.20
2023-05-12T01:49:46.490Z,2.30
2023-05-12T01:52:15.461Z,2.10
2023-05-12T01:54:42.095Z,2.30
2023-05-12T01:57:09.036Z,2.20
2023-05-12T01:59:37.057Z,1.70
2023-05-12T02:02:05.307Z,1.60
2023-05-12T02:04:32.161Z,2.00
2023-05-12T02:06:59.754Z,1.80
2023-05-12T02:09:26.714Z,1.90
2023-05-12T02:11:56.298Z,1.80
2023-05-12T02:14:23.001Z,2.30
2023-05-12T02:16:52.749Z,2.00
2023-05-12T02:19:20.826Z,2.30
2023-05-12T02:21:48.436Z,1.60
2023-05-12T02:24:16.614Z,2.30
2023-05-12T02:26:43.658Z,1.70
2023-05-12T02:29:11.679Z,1.70
2023-05-12T02:31:38.467Z,1.90
2023-05-12T02:34:12.892Z,1.70
2023-05-12T02:36:39.533Z,1.90
2023-05-12T02:39:06.165Z,1.90
2023-05-12T02:41:32.903Z,1.90
2023-05-12T02:43:59.806Z,1.60
2023-05-12T02:46:26.581Z,2.30
2023-05-12T02:48:53.658Z,1.80
2023-05-12T02:51:20.369Z,1.60
2023-05-12T02:53:47.191Z,2.10
2023-05-12T02:56:13.909Z,1.70
2023-05-12T02:58:40.657Z,1.60
2023-05-12T03:01:11.253Z,2.40
2023-05-12T03:03:39.186Z,2.80
2023-05-12T03:06:06.648Z,1.80
2023-05-12T03:08:33.304Z,1.50
2023-05-12T03:11:00.094Z,1.80
2023-05-12T03:13:26.793Z,2.00
2023-05-12T03:15:53.512Z,1.70
2023-05-12T03:18:20.691Z,1.60
2023-05-12T03:20:47.454Z,2.00
2023-05-12T03:23:14.192Z,2.00
2023-05-12T03:25:40.896Z,1.70
2023-05-12T03:28:07.658Z,1.50
2023-05-12T03:30:34.408Z,1.50
2023-05-12T03:33:01.253Z,2.00
2023-05-12T03:35:28.099Z,1.40
2023-05-12T03:37:54.834Z,1.20
2023-05-12T03:40:21.997Z,1.60
2023-05-12T03:42:48.854Z,1.70
2023-05-12T03:45:17.993Z,1.60
2023-05-12T03:47:44.747Z,1.70
2023-05-12T03:50:11.721Z,1.70
2023-05-12T03:52:41.130Z,2.20
2023-05-12T03:55:08.204Z,1.50
2023-05-12T03:57:36.711Z,1.50
2023-05-12T04:00:05.246Z,1.40
2023-05-12T04:02:39.527Z,1.80
2023-05-12T04:05:08.274Z,1.60
2023-05-12T04:07:35.576Z,1.30
2023-05-12T04:10:02.861Z,0.90
2023-05-12T04:12:29.738Z,1.40
2023-05-12T04:14:57.303Z,1.10
2023-05-12T04:17:24.870Z,1.10
2023-05-12T04:19:53.440Z,1.10
2023-05-12T04:23:47.598Z,1.00
2023-05-12T04:26:14.414Z,1.20
2023-05-12T04:28:41.219Z,1.20
2023-05-12T04:31:08.774Z,1.10
2023-05-12T04:33:36.447Z,1.40
2023-05-12T04:36:05.693Z,1.10
2023-05-12T04:38:32.347Z,1.10
2023-05-12T04:40:59.979Z,1.10
2023-05-12T04:45:59.760Z,1.30
2023-05-12T04:48:29.102Z,1.10
2023-05-12T04:50:59.116Z,1.10
2023-05-12T04:53:26.849Z,1.30
2023-05-12T04:55:53.637Z,1.20
2023-05-12T04:58:20.563Z,1.30
2023-05-12T05:00:47.824Z,1.50
2023-05-12T05:03:14.659Z,1.40
2023-05-12T05:05:41.564Z,1.00
2023-05-12T05:08:08.356Z,1.00
2023-05-12T05:10:35.318Z,1.50
2023-05-12T05:13:02.889Z,1.60
2023-05-12T05:15:29.736Z,1.30
2023-05-12T05:17:56.614Z,1.20
2023-05-12T05:20:27.955Z,1.40
2023-05-12T05:22:56.136Z,1.10
2023-05-12T05:25:22.951Z,1.20
2023-05-12T05:27:49.672Z,1.20
2023-05-12T05:30:17.072Z,1.20
2023-05-12T05:32:44.617Z,1.30
2023-05-12T05:35:11.506Z,1.30
2023-05-12T05:37:42.727Z,1.40
2023-05-12T05:40:09.877Z,1.40
2023-05-12T05:42:36.634Z,2.00
2023-05-12T05:45:03.628Z,1.80
2023-05-12T05:47:31.967Z,1.30
2023-05-12T05:49:58.776Z,2.00
2023-05-12T05:52:26.140Z,1.20
2023-05-12T05:54:52.796Z,1.00
2023-05-12T05:57:21.349Z,1.20
2023-05-12T05:59:48.571Z,0.90
2023-05-12T06:02:16.589Z,1.60
2023-05-12T06:04:43.332Z,0.80
2023-05-12T06:07:09.978Z,1.10
2023-05-12T06:09:36.677Z,1.40
2023-05-12T06:12:03.333Z,0.80
2023-05-12T06:14:30.165Z,1.00
2023-05-12T06:16:57.108Z,1.90
2023-05-12T06:19:24.008Z,0.90
2023-05-12T06:21:52.776Z,0.90
2023-05-12T06:24:19.515Z,0.90
2023-05-12T06:26:46.362Z,0.80
2023-05-12T06:29:13.610Z,0.70
2023-05-12T06:31:40.343Z,0.80
2023-05-12T06:34:08.455Z,0.80
2023-05-12T06:36:35.112Z,1.00
2023-05-12T06:39:02.133Z,0.70
2023-05-12T06:41:29.148Z,0.80
2023-05-12T06:43:55.954Z,0.70
2023-05-12T06:46:27.560Z,0.80
2023-05-12T06:48:55.752Z,0.90
2023-05-12T06:51:22.366Z,0.60
2023-05-12T06:53:49.116Z,0.60
2023-05-12T06:56:17.071Z,0.60
2023-05-12T06:58:44.078Z,0.40
2023-05-12T07:01:10.977Z,0.50
2023-05-12T07:03:37.712Z,0.50
2023-05-12T07:06:04.755Z,0.40
2023-05-12T07:08:31.445Z,0.50
2023-05-12T07:11:00.346Z,0.50
2023-05-12T07:13:27.060Z,0.40
2023-05-12T07:15:53.768Z,0.40
2023-05-12T07:18:20.500Z,0.40
2023-05-12T07:20:47.334Z,0.40
2023-05-12T07:23:14.125Z,0.40
2023-05-12T07:25:40.895Z,0.40
2023-05-12T07:28:07.675Z,0.40
2023-05-12T07:30:34.366Z,0.40
2023-05-12T07:33:01.455Z,0.30
2023-05-12T07:35:28.526Z,0.40
2023-05-12T07:37:55.157Z,0.40
2023-05-12T07:40:21.792Z,0.50
2023-05-12T07:42:48.526Z,0.30
2023-05-12T07:45:22.872Z,0.30
2023-05-12T07:47:50.811Z,0.60
2023-05-12T07:50:18.431Z,0.40
2023-05-12T07:52:49.371Z,0.40
2023-05-12T07:55:16.845Z,0.50
2023-05-12T07:57:43.802Z,0.40
2023-05-12T08:00:11.332Z,0.50
2023-05-12T08:02:41.798Z,0.40
2023-05-12T08:05:09.837Z,0.40
2023-05-12T08:07:37.283Z,0.40
2023-05-12T08:10:07.162Z,0.40
2023-05-12T08:12:33.926Z,0.30
2023-05-12T08:15:00.836Z,0.40
2023-05-12T08:17:29.279Z,0.40
2023-05-12T08:19:56.567Z,0.50
2023-05-12T08:22:23.320Z,0.50
2023-05-12T08:24:50.082Z,0.40
2023-05-12T08:27:17.949Z,0.50
2023-05-12T08:29:44.610Z,0.50
2023-05-12T08:32:11.950Z,0.40
2023-05-12T08:34:38.650Z,0.50
2023-05-12T08:37:05.473Z,0.40
2023-05-12T08:39:33.972Z,0.50
2023-05-12T08:42:50.443Z,0.40
2023-05-12T08:45:17.210Z,0.40
2023-05-12T08:47:44.982Z,0.40
2023-05-12T08:50:11.778Z,0.40
2023-05-12T08:52:38.499Z,0.40
2023-05-12T08:55:06.984Z,0.30
2023-05-12T08:57:33.652Z,0.40
2023-05-12T09:00:00.397Z,0.40
2023-05-12T09:02:32.732Z,0.30
2023-05-12T09:05:04.927Z,0.40
2023-05-12T09:07:32.217Z,0.50
2023-05-12T09:09:58.984Z,0.40
2023-05-12T09:12:26.189Z,0.50
2023-05-12T09:14:59.199Z,0.40
2023-05-12T09:17:26.247Z,0.40
2023-05-12T09:19:53.092Z,0.40
2023-05-12T09:22:28.568Z,0.60
2023-05-12T09:24:55.828Z,0.30
2023-05-12T09:27:29.394Z,0.50
2023-05-12T09:29:59.618Z,0.40
2023-05-12T09:32:31.881Z,0.40
2023-05-12T09:35:03.885Z,0.40
2023-05-12T09:37:32.456Z,0.40
2023-05-12T09:40:03.021Z,0.40
2023-05-12T09:42:30.583Z,0.50
2023-05-12T09:45:04.759Z,0.60
2023-05-12T09:47:36.271Z,0.60
2023-05-12T09:50:04.090Z,0.40
2023-05-12T09:52:33.115Z,0.50
2023-05-12T09:55:13.292Z,0.50
2023-05-12T09:57:41.180Z,0.50
2023-05-12T10:00:16.946Z,0.50
2023-05-12T10:02:55.675Z,0.40
2023-05-12T10:05:22.533Z,0.60
2023-05-12T10:07:50.951Z,0.40
2023-05-12T10:10:23.503Z,0.40
2023-05-12T10:12:50.283Z,0.40
2023-05-12T10:15:17.672Z,0.40
2023-05-12T10:17:44.763Z,0.50
2023-05-12T10:20:11.710Z,0.40
2023-05-12T10:22:38.910Z,0.40
2023-05-12T10:25:06.947Z,0.50
2023-05-12T10:27:33.619Z,0.40
2023-05-12T10:30:01.540Z,0.30
2023-05-12T10:32:28.261Z,0.50
2023-05-12T10:34:55.067Z,0.40
2023-05-12T10:37:23.261Z,0.50
2023-05-12T10:39:52.293Z,0.40
2023-05-12T10:42:25.644Z,0.40
2023-05-12T10:44:53.229Z,0.30
2023-05-12T10:47:26.841Z,0.70
2023-05-12T10:49:58.720Z,0.40
2023-05-12T10:52:25.989Z,0.40
2023-05-12T10:54:59.910Z,0.40
2023-05-12T10:57:27.049Z,0.30
2023-05-12T10:59:58.612Z,0.40
2023-05-12T11:02:30.824Z,0.30
2023-05-12T11:05:00.257Z,0.30
2023-05-12T11:07:30.320Z,0.30
2023-05-12T11:10:01.273Z,0.30
2023-05-12T11:12:32.549Z,0.40
2023-05-12T11:15:00.684Z,0.40
2023-05-12T11:17:27.645Z,0.40
2023-05-12T11:19:55.124Z,0.30
2023-05-12T11:22:22.586Z,0.20
2023-05-12T11:24:49.698Z,0.40
2023-05-12T11:27:18.264Z,0.30
2023-05-12T11:29:47.147Z,0.30
2023-05-12T11:32:15.640Z,0.40
2023-05-12T11:34:42.603Z,0.40
2023-05-12T11:37:09.409Z,0.30
2023-05-12T11:39:36.286Z,0.40
2023-05-12T11:42:13.087Z,0.40
2023-05-12T11:44:47.979Z,0.40
2023-05-12T11:47:15.622Z,0.30
2023-05-12T11:49:53.255Z,0.20
2023-05-12T11:52:21.019Z,1.00
2023-05-12T11:54:51.957Z,0.30
2023-05-12T11:57:31.826Z,0.30
2023-05-12T12:00:06.960Z,0.30
2023-05-12T12:02:34.049Z,0.40
2023-05-12T12:05:00.970Z,0.20
2023-05-12T12:07:36.495Z,0.40
2023-05-12T12:10:16.432Z,0.30
2023-05-12T12:12:43.302Z,0.40
2023-05-12T12:15:10.989Z,0.40
2023-05-12T12:17:38.263Z,0.40
2023-05-12T12:20:06.495Z,0.30
2023-05-12T12:22:34.611Z,0.40
2023-05-12T12:25:02.465Z,0.30
2023-05-12T12:27:29.214Z,0.50
2023-05-12T12:29:55.945Z,0.40
2023-05-12T12:32:22.643Z,0.30
2023-05-12T12:34:49.510Z,0.20
2023-05-12T12:37:17.157Z,0.30
2023-05-12T12:39:43.974Z,0.40
2023-05-12T12:42:10.598Z,0.40
2023-05-12T12:44:37.264Z,0.30
2023-05-12T12:47:04.732Z,0.30
2023-05-12T12:49:31.431Z,0.30
2023-05-12T12:51:58.153Z,0.30
2023-05-12T12:54:27.337Z,0.30
2023-05-12T12:56:55.558Z,0.30
2023-05-12T12:59:22.546Z,0.30
2023-05-12T13:01:49.303Z,0.40
2023-05-12T13:04:17.252Z,0.30
2023-05-12T13:06:43.926Z,0.30
2023-05-12T13:09:10.831Z,0.30
2023-05-12T13:11:37.630Z,0.40
2023-05-12T13:14:05.007Z,0.40
2023-05-12T13:16:31.725Z,0.40
2023-05-12T13:18:58.905Z,0.30
2023-05-12T13:21:25.731Z,0.30
2023-05-12T13:23:52.354Z,0.40
2023-05-12T13:26:19.055Z,0.20
2023-05-12T13:28:45.807Z,0.40
2023-05-12T13:31:12.476Z,0.40
2023-05-12T13:33:39.318Z,0.30
2023-05-12T13:36:06.642Z,0.40
2023-05-12T13:38:33.965Z,0.50
2023-05-12T13:41:00.688Z,0.40
2023-05-12T13:43:27.404Z,0.50
2023-05-12T13:45:54.110Z,0.80
2023-05-12T13:48:21.052Z,0.50
2023-05-12T13:50:47.979Z,0.40
2023-05-12T13:53:14.647Z,0.80
2023-05-12T13:55:41.392Z,1.30
2023-05-12T13:58:08.099Z,3.20
2023-05-12T14:00:34.939Z,4.60
2023-05-12T14:03:01.775Z,2.90
2023-05-12T14:05:28.934Z,1.50
2023-05-12T14:07:55.810Z,0.60
2023-05-12T14:10:22.447Z,0.40
2023-05-12T14:12:49.422Z,2.20
2023-05-12T14:17:45.854Z,0.40
2023-05-12T14:20:12.717Z,0.30
2023-05-12T14:22:39.528Z,0.30
2023-05-12T14:25:06.592Z,0.30
2023-05-12T14:27:33.273Z,0.30
2023-05-12T14:29:59.943Z,0.30
2023-05-12T14:32:26.821Z,0.40
2023-05-12T14:34:53.525Z,0.40
2023-05-12T14:37:20.334Z,0.40
2023-05-12T14:39:47.095Z,0.50
2023-05-12T14:42:13.827Z,0.30
2023-05-12T14:44:40.667Z,0.40
2023-05-12T14:47:09.128Z,0.70
2023-05-12T14:49:36.105Z,0.40
2023-05-12T14:52:03.041Z,0.40
2023-05-12T14:54:29.658Z,0.40
2023-05-12T14:56:56.778Z,0.30
2023-05-12T14:59:23.516Z,0.30
2023-05-12T15:01:50.317Z,0.40
2023-05-12T15:04:17.145Z,0.40
2023-05-12T15:06:43.807Z,0.30
2023-05-12T15:09:10.597Z,0.40
2023-05-12T15:11:37.829Z,0.60
2023-05-12T15:14:04.977Z,0.50
2023-05-12T15:16:33.180Z,0.40
2023-05-12T15:19:00.018Z,0.40
2023-05-12T15:21:26.894Z,0.40
2023-05-12T15:23:53.520Z,0.30
2023-05-12T15:26:32.785Z,0.30
2023-05-12T15:29:01.716Z,0.40
2023-05-12T15:31:29.227Z,0.20
2023-05-12T15:33:56.759Z,0.40
2023-05-12T15:36:23.502Z,0.50
2023-05-12T15:38:50.169Z,0.60
2023-05-12T15:41:16.813Z,0.40
2023-05-12T15:43:43.499Z,0.40
2023-05-12T15:46:11.612Z,0.30
2023-05-12T15:48:39.423Z,0.40
2023-05-12T15:51:07.817Z,0.40
2023-05-12T15:53:34.660Z,0.30
2023-05-12T15:56:02.039Z,0.40
2023-05-12T15:58:29.075Z,0.30
2023-05-12T16:00:55.960Z,0.40
2023-05-12T16:03:23.668Z,0.30
2023-05-12T16:05:50.656Z,0.40
2023-05-12T16:08:17.395Z,0.50
2023-05-12T16:10:44.146Z,0.30
2023-05-12T16:13:10.836Z,0.30
2023-05-12T16:15:37.607Z,0.50
2023-05-12T16:18:06.381Z,0.50
2023-05-12T16:20:34.432Z,0.50
2023-05-12T16:23:01.180Z,0.30
2023-05-12T16:25:27.963Z,0.40
2023-05-12T16:27:54.595Z,0.50
2023-05-12T16:30:21.353Z,0.40
2023-05-12T16:32:48.038Z,0.40
2023-05-12T16:35:14.795Z,0.30
2023-05-12T16:40:39.995Z,0.80
2023-05-12T16:43:06.884Z,0.30
2023-05-12T16:45:33.656Z,0.40
2023-05-12T16:48:00.462Z,0.50
2023-05-12T16:50:27.305Z,0.40
2023-05-12T16:52:54.147Z,0.40
2023-05-12T16:55:21.466Z,0.40
2023-05-12T16:57:48.341Z,0.40
2023-05-12T17:00:16.147Z,0.50
2023-05-12T17:02:42.917Z,0.50
2023-05-12T17:05:09.865Z,0.50
2023-05-12T17:07:36.592Z,0.30
2023-05-12T17:10:03.433Z,0.30
2023-05-12T17:12:30.161Z,0.30
2023-05-12T17:15:07.008Z,0.30
2023-05-12T17:17:43.875Z,0.40
2023-05-12T17:20:11.729Z,0.40
2023-05-12T17:22:42.023Z,0.60
2023-05-12T17:25:09.341Z,0.70
2023-05-12T17:27:36.556Z,0.40
2023-05-12T17:30:04.613Z,0.40
2023-05-12T17:32:31.657Z,0.30
2023-05-12T17:34:58.357Z,0.40
2023-05-12T17:37:25.446Z,0.40
2023-05-12T17:39:52.514Z,0.50
2023-05-12T17:42:19.263Z,0.40
2023-05-12T17:44:46.060Z,0.60
2023-05-12T17:47:15.987Z,0.60
2023-05-12T17:49:42.731Z,0.60
2023-05-12T17:52:09.359Z,0.80
2023-05-12T17:54:36.551Z,1.10
2023-05-12T17:57:03.337Z,1.10
2023-05-12T17:59:30.040Z,0.90
2023-05-12T18:01:56.802Z,0.80
2023-05-12T18:04:23.671Z,1.10
2023-05-12T18:06:50.349Z,1.00
2023-05-12T18:09:17.804Z,1.10
2023-05-12T18:11:44.840Z,1.50
2023-05-12T18:14:11.538Z,1.80
2023-05-12T18:16:38.363Z,2.60
2023-05-12T18:19:05.125Z,2.90
2023-05-12T18:21:32.751Z,2.40
2023-05-12T18:23:59.511Z,2.10
2023-05-12T18:26:26.852Z,1.20
2023-05-12T18:28:53.516Z,1.60
2023-05-12T18:31:20.364Z,1.40
2023-05-12T18:33:47.961Z,1.60
2023-05-12T18:36:15.208Z,1.30
2023-05-12T18:38:42.442Z,1.50
2023-05-12T18:41:09.382Z,1.60
2023-05-12T18:43:36.768Z,1.30
2023-05-12T18:46:03.823Z,1.10
2023-05-12T18:48:31.196Z,0.90
2023-05-12T18:50:57.927Z,1.20
2023-05-12T18:53:24.860Z,0.90
2023-05-12T18:55:51.652Z,0.70
2023-05-12T18:58:18.412Z,0.90
2023-05-12T19:00:45.121Z,0.90
2023-05-12T19:03:11.904Z,0.70
2023-05-12T19:05:43.181Z,0.70
2023-05-12T19:08:10.937Z,0.70
2023-05-12T19:10:39.695Z,0.60
2023-05-12T19:13:06.866Z,0.60
2023-05-12T19:15:33.520Z,0.60
2023-05-12T19:18:00.403Z,0.70
2023-05-12T19:20:28.304Z,0.60
2023-05-12T19:22:55.246Z,0.60
2023-05-12T19:25:22.357Z,0.70
2023-05-12T19:27:49.241Z,1.00
2023-05-12T19:30:16.700Z,0.70
2023-05-12T19:32:46.242Z,0.60
2023-05-12T19:35:14.400Z,0.60
2023-05-12T19:37:41.039Z,0.90
2023-05-12T19:40:08.292Z,0.90
2023-05-12T19:42:37.776Z,0.80
2023-05-12T19:45:05.251Z,1.00
2023-05-12T19:47:33.520Z,1.20
2023-05-12T19:50:00.639Z,1.00
2023-05-12T19:52:30.464Z,1.10
2023-05-12T19:54:57.386Z,0.90
2023-05-12T19:57:24.080Z,1.40
2023-05-12T19:59:50.870Z,0.90
2023-05-12T20:02:17.666Z,1.10
2023-05-12T20:04:44.372Z,0.90
2023-05-12T20:07:11.069Z,1.20
2023-05-12T20:09:37.800Z,1.60
2023-05-12T20:12:07.947Z,1.90
2023-05-12T20:14:35.689Z,1.60
2023-05-12T20:17:05.675Z,2.40
2023-05-12T20:19:33.231Z,2.10
2023-05-12T20:22:00.061Z,1.70
2023-05-12T20:24:26.834Z,1.70
2023-05-12T20:26:53.738Z,2.50
2023-05-12T20:29:20.911Z,1.50
2023-05-12T20:31:50.888Z,2.30
2023-05-12T20:34:18.651Z,1.70
2023-05-12T20:36:45.445Z,2.30
2023-05-12T20:39:12.726Z,2.80
2023-05-12T20:41:40.152Z,3.60
2023-05-12T20:44:07.034Z,2.60
2023-05-12T20:46:37.107Z,2.80
2023-05-12T20:49:04.985Z,2.50
2023-05-12T20:51:32.486Z,2.50
2023-05-12T20:53:59.406Z,2.20
2023-05-12T20:56:27.106Z,2.40
2023-05-12T20:58:54.061Z,1.70
2023-05-12T21:01:20.851Z,2.00
2023-05-12T21:03:47.736Z,2.20
2023-05-12T21:06:14.901Z,1.50
2023-05-12T21:08:41.624Z,1.90
2023-05-12T21:11:16.107Z,2.20
2023-05-12T21:13:44.180Z,1.90
2023-05-12T21:16:11.329Z,1.30
2023-05-12T21:18:38.267Z,1.20
2023-05-12T21:21:06.126Z,1.20
2023-05-12T21:23:32.880Z,1.00
2023-05-12T21:25:59.726Z,1.30
2023-05-12T21:28:26.777Z,1.50
2023-05-12T21:30:53.475Z,1.20
2023-05-12T21:33:20.115Z,1.40
2023-05-12T21:35:47.001Z,1.60
2023-05-12T21:38:13.752Z,1.90
2023-05-12T21:40:40.458Z,1.50
2023-05-12T21:43:07.197Z,1.30
2023-05-12T21:45:33.915Z,1.20
2023-05-12T21:48:00.703Z,1.60
2023-05-12T21:50:27.440Z,2.10
2023-05-12T21:52:54.084Z,1.50
2023-05-12T21:55:20.912Z,1.60
2023-05-12T21:57:47.611Z,1.10
2023-05-12T22:00:15.164Z,1.30
2023-05-12T22:02:42.135Z,1.40
2023-05-12T22:05:09.056Z,1.10
2023-05-12T22:07:35.795Z,1.00
2023-05-12T22:10:03.725Z,1.20
2023-05-12T22:12:30.474Z,0.90
2023-05-12T22:14:57.213Z,1.10
2023-05-12T22:17:23.920Z,1.00
2023-05-12T22:19:50.996Z,1.40
2023-05-12T22:22:17.975Z,1.30
2023-05-12T22:24:44.640Z,1.20
2023-05-12T22:27:11.656Z,1.20
2023-05-12T22:29:38.289Z,1.10
2023-05-12T22:32:05.552Z,1.00
2023-05-12T22:34:32.207Z,1.40
2023-05-12T22:36:58.872Z,1.00
2023-05-12T22:39:25.680Z,1.20
2023-05-12T22:41:52.398Z,1.30
2023-05-12T22:44:19.062Z,1.20
2023-05-12T22:46:45.980Z,1.20
2023-05-12T22:49:12.683Z,1.10
2023-05-12T22:51:39.380Z,1.00
2023-05-12T22:54:06.136Z,1.10
2023-05-12T22:56:32.782Z,0.80
2023-05-12T22:58:59.456Z,0.90
2023-05-12T23:01:26.107Z,0.80
2023-05-12T23:03:52.904Z,0.80
2023-05-12T23:06:19.800Z,1.00
2023-05-12T23:08:46.480Z,0.80
2023-05-12T23:11:13.236Z,0.80
2023-05-12T23:13:40.262Z,1.40
2023-05-12T23:16:07.416Z,1.10
2023-05-12T23:18:34.221Z,0.90
2023-05-12T23:21:00.939Z,1.00
2023-05-12T23:23:27.569Z,1.00
2023-05-12T23:25:54.294Z,1.10
2023-05-12T23:28:21.023Z,1.10
2023-05-12T23:30:47.632Z,1.00
2023-05-12T23:33:14.441Z,0.80
2023-05-12T23:35:41.176Z,0.80
2023-05-12T23:38:08.111Z,0.70
2023-05-12T23:40:39.021Z,0.80
2023-05-12T23:43:06.405Z,1.50
2023-05-12T23:45:33.224Z,0.90
2023-05-12T23:48:00.189Z,0.80
2023-05-12T23:50:27.205Z,0.90
2023-05-12T23:52:53.987Z,1.00
2023-05-12T23:55:21.525Z,0.80
2023-05-12T23:57:48.367Z,1.00
